createdAt,value
2018-10-18T00:01:50.213Z,102166.00
2018-10-18T00:04:19.057Z,102165.37
2018-10-18T00:06:47.864Z,102176.45
2018-10-18T00:09:16.738Z,102166.86
2018-10-18T00:11:45.661Z,102167.77
2018-10-18T00:14:14.592Z,102164.73
2018-10-18T00:16:43.389Z,102163.67
2018-10-18T00:19:12.300Z,102160.59
2018-10-18T00:21:41.083Z,102166.80
2018-10-18T00:24:10.262Z,102164.14
2018-10-18T00:26:39.336Z,102170.72
2018-10-18T00:29:08.184Z,102162.52
2018-10-18T00:31:36.981Z,102174.94
2018-10-18T00:34:05.870Z,102168.19
2018-10-18T00:36:34.902Z,102177.16
2018-10-18T00:39:06.380Z,102174.20
2018-10-18T00:41:35.437Z,102175.37
2018-10-18T00:44:05.209Z,102180.37
2018-10-18T00:46:34.103Z,102178.10
2018-10-18T00:49:03.014Z,102180.91
2018-10-18T00:51:31.823Z,102176.81
2018-10-18T00:54:00.720Z,102178.61
2018-10-18T00:56:29.554Z,102176.48
2018-10-18T00:58:58.320Z,102179.55
2018-10-18T01:01:27.233Z,102170.41
2018-10-18T01:03:56.093Z,102178.51
2018-10-18T01:06:24.974Z,102181.33
2018-10-18T01:08:53.780Z,102178.95
2018-10-18T01:11:22.621Z,102178.03
2018-10-18T01:13:51.480Z,102175.52
2018-10-18T01:16:20.317Z,102172.02
2018-10-18T01:18:49.134Z,102174.98
2018-10-18T01:21:17.981Z,102183.92
2018-10-18T01:23:46.745Z,102180.30
2018-10-18T01:26:15.773Z,102186.07
2018-10-18T01:28:44.547Z,102183.77
2018-10-18T01:31:13.400Z,102187.00
2018-10-18T01:33:42.216Z,102190.16
2018-10-18T01:36:11.176Z,102195.67
2018-10-18T01:38:40.154Z,102196.17
2018-10-18T01:41:09.021Z,102190.61
2018-10-18T01:43:38.471Z,102192.36
2018-10-18T01:46:07.395Z,102192.97
2018-10-18T01:48:36.221Z,102197.02
2018-10-18T01:51:05.403Z,102187.42
2018-10-18T01:53:34.254Z,102191.37
2018-10-18T01:56:03.524Z,102195.70
2018-10-18T01:58:32.349Z,102200.14
2018-10-18T02:01:01.448Z,102205.55
2018-10-18T02:03:30.339Z,102199.30
2018-10-18T02:05:59.495Z,102200.61
2018-10-18T02:08:28.338Z,102201.64
2018-10-18T02:10:57.141Z,102197.62
2018-10-18T02:13:26.045Z,102199.53
2018-10-18T02:15:55.400Z,102192.55
2018-10-18T02:18:24.835Z,102194.06
2018-10-18T02:20:53.656Z,102193.22
2018-10-18T02:23:22.501Z,102187.86
2018-10-18T02:25:51.403Z,102193.86
2018-10-18T02:28:20.326Z,102194.81
2018-10-18T02:30:49.163Z,102194.59
2018-10-18T02:33:18.024Z,102200.67
2018-10-18T02:35:46.868Z,102193.92
2018-10-18T02:38:15.739Z,102198.69
2018-10-18T02:40:44.610Z,102192.74
2018-10-18T02:43:13.881Z,102196.48
2018-10-18T02:45:42.701Z,102189.15
2018-10-18T02:48:11.584Z,102184.96
2018-10-18T02:50:40.396Z,102187.22
2018-10-18T02:53:09.440Z,102182.28
2018-10-18T02:55:38.260Z,102191.33
2018-10-18T02:58:07.103Z,102198.41
2018-10-18T03:00:35.922Z,102199.30
2018-10-18T03:03:05.092Z,102201.76
2018-10-18T03:05:34.025Z,102200.11
2018-10-18T03:08:02.932Z,102197.27
2018-10-18T03:10:31.826Z,102195.31
2018-10-18T03:13:00.989Z,102200.55
2018-10-18T03:15:29.885Z,102212.19
2018-10-18T03:17:58.857Z,102202.46
2018-10-18T03:20:27.697Z,102204.23
2018-10-18T03:22:56.816Z,102205.61
2018-10-18T03:25:25.709Z,102202.66
2018-10-18T03:27:54.575Z,102211.08
2018-10-18T03:30:23.622Z,102209.57
2018-10-18T03:32:52.411Z,102215.66
2018-10-18T03:35:21.245Z,102215.29
2018-10-18T03:37:50.068Z,102214.99
2018-10-18T03:40:18.900Z,102217.55
2018-10-18T03:42:47.792Z,102216.11
2018-10-18T03:45:18.545Z,102216.77
2018-10-18T03:47:47.416Z,102211.85
2018-10-18T03:50:16.363Z,102210.23
2018-10-18T03:52:45.272Z,102214.48
2018-10-18T03:55:14.251Z,102218.83
2018-10-18T03:57:43.196Z,102223.95
2018-10-18T04:00:12.088Z,102224.99
2018-10-18T04:02:40.961Z,102223.01
2018-10-18T04:05:10.167Z,102219.20
2018-10-18T04:07:39.225Z,102222.05
2018-10-18T04:10:08.324Z,102223.55
2018-10-18T04:12:37.525Z,102219.27
2018-10-18T04:15:06.920Z,102214.25
2018-10-18T04:17:35.802Z,102212.91
2018-10-18T04:20:05.869Z,102213.25
2018-10-18T04:22:34.718Z,102211.15
2018-10-18T04:25:03.755Z,102215.98
2018-10-18T04:27:32.573Z,102219.78
2018-10-18T04:30:01.410Z,102212.47
2018-10-18T04:32:30.556Z,102226.47
2018-10-18T04:34:59.423Z,102214.77
2018-10-18T04:37:28.364Z,102217.16
2018-10-18T04:39:57.180Z,102215.69
2018-10-18T04:42:26.093Z,102211.84
2018-10-18T04:44:55.011Z,102204.86
2018-10-18T04:47:23.956Z,102199.11
2018-10-18T04:49:52.680Z,102204.10
2018-10-18T04:52:21.581Z,102211.38
2018-10-18T04:54:50.397Z,102222.59
2018-10-18T04:57:19.368Z,102219.13
2018-10-18T04:59:48.281Z,102223.95
2018-10-18T05:02:17.100Z,102225.73
2018-10-18T05:05:02.869Z,102221.23
2018-10-18T05:07:32.738Z,102222.59
2018-10-18T05:10:01.617Z,102232.39
2018-10-18T05:12:30.440Z,102233.23
2018-10-18T05:14:59.320Z,102237.03
2018-10-18T05:17:28.166Z,102233.72
2018-10-18T05:19:57.247Z,102235.89
2018-10-18T05:22:26.068Z,102239.41
2018-10-18T05:24:55.028Z,102236.52
2018-10-18T05:27:23.843Z,102239.25
2018-10-18T05:29:52.742Z,102235.70
2018-10-18T05:32:21.664Z,102239.07
2018-10-18T05:34:50.540Z,102241.28
2018-10-18T05:37:19.448Z,102249.92
2018-10-18T05:39:48.281Z,102251.67
2018-10-18T05:42:17.191Z,102254.63
2018-10-18T05:44:46.144Z,102252.51
2018-10-18T05:47:15.069Z,102257.24
2018-10-18T05:49:44.277Z,102259.52
2018-10-18T05:52:13.079Z,102259.82
2018-10-18T05:54:41.906Z,102257.92
2018-10-18T05:57:11.052Z,102266.65
2018-10-18T05:59:39.937Z,102268.70
2018-10-18T06:02:08.930Z,102281.37
2018-10-18T06:04:37.794Z,102288.64
2018-10-18T06:07:06.849Z,102285.56
2018-10-18T06:09:35.807Z,102284.72
2018-10-18T06:12:04.851Z,102283.50
2018-10-18T06:14:33.912Z,102283.32
2018-10-18T06:17:03.113Z,102288.13
2018-10-18T06:19:32.031Z,102290.73
2018-10-18T06:22:00.993Z,102282.98
2018-10-18T06:24:29.922Z,102286.21
2018-10-18T06:26:58.818Z,102296.86
2018-10-18T06:29:28.122Z,102295.06
2018-10-18T06:31:57.064Z,102302.20
2018-10-18T06:34:26.031Z,102305.23
2018-10-18T06:36:55.370Z,102315.34
2018-10-18T06:39:24.228Z,102318.14
2018-10-18T06:41:53.192Z,102318.44
2018-10-18T06:44:22.428Z,102324.83
2018-10-18T06:46:51.464Z,102330.30
2018-10-18T06:49:20.396Z,102333.55
2018-10-18T06:51:49.269Z,102330.88
2018-10-18T06:54:18.507Z,102335.47
2018-10-18T06:56:47.315Z,102337.90
2018-10-18T06:59:16.325Z,102333.34
2018-10-18T07:01:45.216Z,102337.45
2018-10-18T07:04:14.164Z,102344.23
2018-10-18T07:06:43.020Z,102341.78
2018-10-18T07:09:11.925Z,102346.42
2018-10-18T07:11:40.880Z,102349.66
2018-10-18T07:14:09.789Z,102339.38
2018-10-18T07:16:38.676Z,102345.81
2018-10-18T07:19:07.607Z,102346.17
2018-10-18T07:21:36.475Z,102344.81
2018-10-18T07:24:05.748Z,102346.05
2018-10-18T07:26:34.589Z,102344.34
2018-10-18T07:29:03.950Z,102346.66
2018-10-18T07:31:32.818Z,102350.98
2018-10-18T07:34:01.703Z,102345.56
2018-10-18T07:36:30.609Z,102345.48
2018-10-18T07:38:59.884Z,102346.13
2018-10-18T07:41:28.773Z,102349.10
2018-10-18T07:43:57.914Z,102353.44
2018-10-18T07:46:26.844Z,102354.33
2018-10-18T07:48:55.828Z,102356.83
2018-10-18T07:51:24.756Z,102359.45
2018-10-18T07:53:53.653Z,102363.88
2018-10-18T07:56:22.547Z,102358.66
2018-10-18T07:58:51.418Z,102362.63
2018-10-18T08:01:20.380Z,102359.59
2018-10-18T08:03:49.263Z,102361.17
2018-10-18T08:06:18.253Z,102350.62
2018-10-18T08:08:47.164Z,102358.03
2018-10-18T08:11:16.103Z,102355.89
2018-10-18T08:13:45.063Z,102368.52
2018-10-18T08:16:14.013Z,102364.74
2018-10-18T08:18:42.861Z,102372.06
2018-10-18T08:21:11.778Z,102364.89
2018-10-18T08:23:40.639Z,102374.52
2018-10-18T08:26:09.624Z,102372.02
2018-10-18T08:28:38.461Z,102369.03
2018-10-18T08:31:07.797Z,102370.09
2018-10-18T08:33:36.599Z,102366.34
2018-10-18T08:36:05.618Z,102360.95
2018-10-18T08:38:34.585Z,102373.63
2018-10-18T08:41:03.520Z,102375.48
2018-10-18T08:43:32.846Z,102374.89
2018-10-18T08:46:01.685Z,102371.13
2018-10-18T08:48:30.611Z,102379.81
2018-10-18T08:50:59.555Z,102380.28
2018-10-18T08:53:28.455Z,102382.81
2018-10-18T08:55:57.316Z,102384.31
2018-10-18T08:58:26.246Z,102386.59
2018-10-18T09:00:55.151Z,102387.97
2018-10-18T09:03:24.171Z,102393.91
2018-10-18T09:05:53.024Z,102390.95
2018-10-18T09:08:21.977Z,102392.19
2018-10-18T09:10:50.803Z,102403.66
2018-10-18T09:13:19.794Z,102406.16
2018-10-18T09:15:48.720Z,102407.42
2018-10-18T09:18:17.821Z,102407.40
2018-10-18T09:20:46.989Z,102411.38
2018-10-18T09:23:15.943Z,102407.04
2018-10-18T09:25:44.828Z,102412.22
2018-10-18T09:28:13.785Z,102412.77
2018-10-18T09:30:43.028Z,102413.47
2018-10-18T09:33:12.056Z,102421.50
2018-10-18T09:35:40.927Z,102418.73
2018-10-18T09:38:09.796Z,102417.83
2018-10-18T09:40:38.808Z,102419.67
2018-10-18T09:43:07.715Z,102424.92
2018-10-18T09:45:36.617Z,102425.89
2018-10-18T09:48:05.546Z,102425.76
2018-10-18T09:50:34.530Z,102424.29
2018-10-18T09:53:03.450Z,102430.70
2018-10-18T09:55:32.492Z,102431.41
2018-10-18T09:58:01.365Z,102425.09
2018-10-18T10:00:35.936Z,102431.50
2018-10-18T10:03:10.459Z,102438.95
2018-10-18T10:05:39.386Z,102440.08
2018-10-18T10:08:08.588Z,102440.65
2018-10-18T10:10:37.836Z,102438.03
2018-10-18T10:13:07.556Z,102438.02
2018-10-18T10:15:36.424Z,102441.45
2018-10-18T10:18:05.425Z,102443.18
2018-10-18T10:20:34.325Z,102444.79
2018-10-18T10:23:03.217Z,102445.58
2018-10-18T10:25:32.219Z,102441.02
2018-10-18T10:28:01.116Z,102444.42
2018-10-18T10:30:30.017Z,102443.08
2018-10-18T10:32:59.001Z,102450.60
2018-10-18T10:35:27.927Z,102443.74
2018-10-18T10:37:56.838Z,102450.95
2018-10-18T10:40:25.745Z,102447.64
2018-10-18T10:42:54.794Z,102452.55
2018-10-18T10:45:23.705Z,102456.45
2018-10-18T10:47:52.950Z,102452.22
2018-10-18T10:50:22.280Z,102454.17
2018-10-18T10:52:51.234Z,102450.39
2018-10-18T10:55:20.114Z,102452.92
2018-10-18T10:57:49.040Z,102455.66
2018-10-18T11:00:33.800Z,102458.16
2018-10-18T11:03:02.969Z,102453.59
2018-10-18T11:05:31.795Z,102454.75
2018-10-18T11:08:00.708Z,102459.66
2018-10-18T11:10:29.634Z,102455.31
2018-10-18T11:12:58.588Z,102462.29
2018-10-18T11:15:27.490Z,102461.84
2018-10-18T11:17:56.428Z,102456.80
2018-10-18T11:20:25.337Z,102461.72
2018-10-18T11:22:54.200Z,102462.75
2018-10-18T11:25:23.092Z,102464.23
2018-10-18T11:27:52.064Z,102465.38
2018-10-18T11:30:20.942Z,102464.33
2018-10-18T11:32:49.924Z,102470.42
2018-10-18T11:35:18.768Z,102468.23
2018-10-18T11:37:47.676Z,102471.11
2018-10-18T11:40:16.677Z,102468.02
2018-10-18T11:42:45.741Z,102465.48
2018-10-18T11:45:19.554Z,102472.12
2018-10-18T11:47:48.425Z,102472.70
2018-10-18T11:50:17.539Z,102473.05
2018-10-18T11:52:46.640Z,102472.70
2018-10-18T11:55:15.851Z,102467.67
2018-10-18T11:57:45.096Z,102474.86
2018-10-18T12:00:17.631Z,102466.38
2018-10-18T12:02:47.918Z,102466.51
2018-10-18T12:05:17.353Z,102460.09
2018-10-18T12:07:46.189Z,102465.41
2018-10-18T12:10:15.143Z,102462.45
2018-10-18T12:12:44.005Z,102460.16
2018-10-18T12:15:13.041Z,102461.53
2018-10-18T12:17:41.929Z,102464.04
2018-10-18T12:20:15.564Z,102463.37
2018-10-18T12:22:44.420Z,102462.80
2018-10-18T12:25:13.949Z,102461.39
2018-10-18T12:27:43.335Z,102462.45
2018-10-18T12:30:13.275Z,102465.05
2018-10-18T12:32:42.098Z,102456.91
2018-10-18T12:35:11.056Z,102460.23
2018-10-18T12:37:39.937Z,102471.01
2018-10-18T12:40:09.438Z,102453.35
2018-10-18T12:42:40.324Z,102465.47
2018-10-18T12:45:15.293Z,102458.97
2018-10-18T12:47:44.491Z,102462.56
2018-10-18T12:50:13.732Z,102458.52
2018-10-18T12:52:42.474Z,102459.19
2018-10-18T12:55:11.332Z,102461.23
2018-10-18T12:57:40.276Z,102465.91
2018-10-18T13:00:10.409Z,102470.25
2018-10-18T13:02:39.461Z,102470.98
2018-10-18T13:05:09.794Z,102479.47
2018-10-18T13:07:38.799Z,102473.75
2018-10-18T13:10:10.104Z,102469.28
2018-10-18T13:12:39.406Z,102481.77
2018-10-18T13:15:09.971Z,102475.46
2018-10-18T13:17:39.227Z,102486.11
2018-10-18T13:20:09.554Z,102483.13
2018-10-18T13:22:38.608Z,102482.45
2018-10-18T13:25:09.244Z,102486.67
2018-10-18T13:27:38.542Z,102492.52
2018-10-18T13:30:09.208Z,102498.69
2018-10-18T13:32:39.109Z,102495.03
2018-10-18T13:35:08.767Z,102497.44
2018-10-18T13:37:37.700Z,102503.27
2018-10-18T13:40:08.059Z,102493.53
2018-10-18T13:42:37.379Z,102491.82
2018-10-18T13:45:09.065Z,102499.02
2018-10-18T13:47:38.137Z,102494.80
2018-10-18T13:50:07.918Z,102503.14
2018-10-18T13:52:38.592Z,102506.94
2018-10-18T13:55:07.454Z,102506.01
2018-10-18T13:57:36.437Z,102504.87
2018-10-18T14:00:19.764Z,102501.92
2018-10-18T14:02:51.836Z,102503.05
2018-10-18T14:05:21.125Z,102497.44
2018-10-18T14:07:51.100Z,102497.80
2018-10-18T14:10:20.085Z,102503.95
2018-10-18T14:12:49.408Z,102495.71
2018-10-18T14:15:18.531Z,102496.39
2018-10-18T14:17:47.470Z,102499.97
2018-10-18T14:20:16.711Z,102493.10
2018-10-18T14:22:45.525Z,102491.81
2018-10-18T14:25:14.440Z,102497.08
2018-10-18T14:27:43.563Z,102501.90
2018-10-18T14:30:13.267Z,102497.77
2018-10-18T14:32:42.090Z,102493.63
2018-10-18T14:35:12.320Z,102484.45
2018-10-18T14:37:41.157Z,102490.23
2018-10-18T14:40:11.179Z,102497.33
2018-10-18T14:42:40.135Z,102494.34
2018-10-18T14:45:09.610Z,102495.00
2018-10-18T14:47:38.681Z,102489.77
2018-10-18T14:50:10.742Z,102492.95
2018-10-18T14:52:45.384Z,102492.73
2018-10-18T14:55:20.260Z,102489.54
2018-10-18T14:57:49.301Z,102482.98
2018-10-18T15:00:18.193Z,102483.78
2018-10-18T15:02:47.176Z,102487.69
2018-10-18T15:05:16.259Z,102479.22
2018-10-18T15:07:45.005Z,102484.28
2018-10-18T15:10:14.288Z,102479.70
2018-10-18T15:12:43.371Z,102481.28
2018-10-18T15:15:13.411Z,102483.12
2018-10-18T15:17:42.434Z,102477.80
2018-10-18T15:20:12.214Z,102482.70
2018-10-18T15:22:41.965Z,102482.05
2018-10-18T15:25:11.791Z,102486.97
2018-10-18T15:27:41.434Z,102487.87
2018-10-18T15:30:10.997Z,102489.39
2018-10-18T15:32:39.910Z,102491.92
2018-10-18T15:35:10.259Z,102494.32
2018-10-18T15:37:39.646Z,102498.73
2018-10-18T15:40:09.043Z,102492.48
2018-10-18T15:42:38.050Z,102500.76
2018-10-18T15:45:09.789Z,102502.56
2018-10-18T15:47:38.888Z,102506.00
2018-10-18T15:50:09.345Z,102503.89
2018-10-18T15:52:38.363Z,102508.94
2018-10-18T15:55:07.753Z,102508.86
2018-10-18T15:57:36.689Z,102510.95
2018-10-18T16:00:08.090Z,102512.89
2018-10-18T16:02:36.943Z,102512.86
2018-10-18T16:05:06.383Z,102511.02
2018-10-18T16:07:35.295Z,102512.09
2018-10-18T16:10:04.771Z,102512.42
2018-10-18T16:12:33.689Z,102511.83
2018-10-18T16:15:02.558Z,102519.78
2018-10-18T16:17:31.905Z,102529.08
2018-10-18T16:20:00.916Z,102516.56
2018-10-18T16:22:29.722Z,102529.20
2018-10-18T16:24:58.608Z,102528.82
2018-10-18T16:27:27.501Z,102528.02
2018-10-18T16:29:56.701Z,102529.62
2018-10-18T16:32:25.562Z,102529.22
2018-10-18T16:34:54.498Z,102540.29
2018-10-18T16:37:23.290Z,102546.64
2018-10-18T16:39:52.234Z,102552.52
2018-10-18T16:42:21.244Z,102555.70
2018-10-18T16:44:50.256Z,102558.36
2018-10-18T16:47:19.091Z,102565.13
2018-10-18T16:49:48.020Z,102559.89
2018-10-18T16:52:16.940Z,102564.59
2018-10-18T16:54:45.860Z,102567.80
2018-10-18T16:57:14.713Z,102569.16
2018-10-18T16:59:43.613Z,102567.25
2018-10-18T17:02:12.526Z,102574.84
2018-10-18T17:04:41.558Z,102576.21
2018-10-18T17:07:10.344Z,102576.40
2018-10-18T17:09:39.334Z,102573.56
2018-10-18T17:12:08.501Z,102576.30
2018-10-18T17:14:37.355Z,102581.63
2018-10-18T17:17:06.450Z,102588.44
2018-10-18T17:19:35.336Z,102583.26
2018-10-18T17:22:04.416Z,102589.13
2018-10-18T17:24:33.309Z,102589.98
2018-10-18T17:27:02.250Z,102594.27
2018-10-18T17:29:31.109Z,102600.06
2018-10-18T17:32:00.136Z,102603.54
2018-10-18T17:34:29.017Z,102611.89
2018-10-18T17:36:57.877Z,102618.66
2018-10-18T17:39:26.784Z,102620.67
2018-10-18T17:41:55.721Z,102618.67
2018-10-18T17:44:24.857Z,102619.00
2018-10-18T17:46:53.784Z,102621.80
2018-10-18T17:49:22.649Z,102624.22
2018-10-18T17:51:51.627Z,102624.55
2018-10-18T17:54:20.581Z,102625.09
2018-10-18T17:56:49.517Z,102626.72
2018-10-18T17:59:18.486Z,102628.74
2018-10-18T18:01:47.511Z,102630.23
2018-10-18T18:04:16.420Z,102625.55
2018-10-18T18:06:45.459Z,102632.17
2018-10-18T18:09:14.434Z,102635.79
2018-10-18T18:11:43.323Z,102629.59
2018-10-18T18:14:12.245Z,102630.37
2018-10-18T18:16:41.155Z,102630.20
2018-10-18T18:19:10.087Z,102630.61
2018-10-18T18:21:39.088Z,102633.47
2018-10-18T18:24:08.022Z,102634.52
2018-10-18T18:26:45.220Z,102640.42
2018-10-18T18:29:05.844Z,102649.46
2018-10-18T18:31:34.671Z,102645.77
2018-10-18T18:34:03.741Z,102648.50
2018-10-18T18:36:32.560Z,102648.27
2018-10-18T18:39:01.452Z,102646.95
2018-10-18T18:41:30.287Z,102652.39
2018-10-18T18:43:59.236Z,102654.92
2018-10-18T18:46:29.026Z,102656.72
2018-10-18T18:48:57.939Z,102656.70
2018-10-18T18:51:26.886Z,102657.66
2018-10-18T18:53:56.037Z,102656.30
2018-10-18T18:56:24.885Z,102657.27
2018-10-18T18:58:53.792Z,102656.80
2018-10-18T19:01:22.836Z,102658.80
2018-10-18T19:03:51.709Z,102659.58
2018-10-18T19:06:20.865Z,102663.91
2018-10-18T19:08:50.075Z,102670.36
2018-10-18T19:11:19.571Z,102671.31
2018-10-18T19:13:48.415Z,102668.50
2018-10-18T19:16:17.330Z,102671.05
2018-10-18T19:18:46.146Z,102677.98
2018-10-18T19:21:15.038Z,102686.12
2018-10-18T19:23:43.956Z,102684.67
2018-10-18T19:26:12.878Z,102685.67
2018-10-18T19:28:41.776Z,102679.91
2018-10-18T19:31:10.632Z,102680.97
2018-10-18T19:33:39.518Z,102679.02
2018-10-18T19:36:08.473Z,102687.41
2018-10-18T19:38:37.382Z,102679.46
2018-10-18T19:41:06.248Z,102684.14
2018-10-18T19:43:35.114Z,102680.59
2018-10-18T19:46:05.030Z,102676.98
2018-10-18T19:48:33.952Z,102678.42
2018-10-18T19:51:02.845Z,102685.34
2018-10-18T19:53:31.668Z,102689.50
2018-10-18T19:56:00.513Z,102684.80
2018-10-18T19:58:29.662Z,102686.78
2018-10-18T20:00:58.581Z,102687.36
2018-10-18T20:03:27.409Z,102673.66
2018-10-18T20:05:56.296Z,102681.91
2018-10-18T20:08:25.085Z,102684.75
2018-10-18T20:10:53.899Z,102689.16
2018-10-18T20:13:22.835Z,102690.70
2018-10-18T20:15:51.677Z,102695.88
2018-10-18T20:18:20.627Z,102698.56
2018-10-18T20:20:49.477Z,102699.08
2018-10-18T20:23:18.316Z,102704.23
2018-10-18T20:25:47.422Z,102708.59
2018-10-18T20:28:16.418Z,102715.27
2018-10-18T20:30:45.235Z,102713.56
2018-10-18T20:33:14.171Z,102714.86
2018-10-18T20:35:43.078Z,102714.45
2018-10-18T20:38:12.094Z,102719.70
2018-10-18T20:40:41.202Z,102716.02
2018-10-18T20:43:10.093Z,102724.13
2018-10-18T20:45:38.907Z,102724.09
2018-10-18T20:48:07.943Z,102725.96
2018-10-18T20:50:36.721Z,102721.73
2018-10-18T20:53:05.699Z,102727.35
2018-10-18T20:55:34.558Z,102728.62
2018-10-18T20:58:03.652Z,102718.47
2018-10-18T21:00:32.516Z,102716.25
2018-10-18T21:03:01.578Z,102715.67
2018-10-18T21:05:30.406Z,102718.94
2018-10-18T21:07:59.244Z,102720.08
2018-10-18T21:10:28.178Z,102724.55
2018-10-18T21:12:57.065Z,102723.83
2018-10-18T21:15:25.984Z,102721.53
2018-10-18T21:17:54.830Z,102728.44
2018-10-18T21:20:23.709Z,102720.75
2018-10-18T21:22:52.550Z,102729.07
2018-10-18T21:25:21.415Z,102729.41
2018-10-18T21:27:50.362Z,102728.80
2018-10-18T21:30:19.272Z,102735.94
2018-10-18T21:32:48.087Z,102729.61
2018-10-18T21:35:17.019Z,102731.80
2018-10-18T21:37:45.757Z,102726.70
2018-10-18T21:40:14.931Z,102726.97
2018-10-18T21:42:43.739Z,102722.50
2018-10-18T21:45:12.879Z,102717.91
2018-10-18T21:47:42.170Z,102716.79
2018-10-18T21:50:11.057Z,102724.52
2018-10-18T21:52:39.989Z,102720.25
2018-10-18T21:55:09.160Z,102716.56
2018-10-18T21:57:37.972Z,102716.42
2018-10-18T22:00:13.284Z,102711.69
2018-10-18T22:02:43.267Z,102711.94
2018-10-18T22:05:13.218Z,102712.94
2018-10-18T22:07:42.521Z,102713.53
2018-10-18T22:10:12.146Z,102718.53
2018-10-18T22:12:41.076Z,102713.36
2018-10-18T22:15:10.677Z,102713.23
2018-10-18T22:17:39.555Z,102713.98
2018-10-18T22:20:09.867Z,102710.88
2018-10-18T22:22:38.748Z,102714.01
2018-10-18T22:25:08.932Z,102710.53
2018-10-18T22:27:37.961Z,102712.70
2018-10-18T22:30:07.632Z,102712.80
2018-10-18T22:32:36.820Z,102714.20
2018-10-18T22:35:05.794Z,102712.57
2018-10-18T22:37:34.625Z,102709.13
2018-10-18T22:40:03.697Z,102709.21
2018-10-18T22:42:32.607Z,102708.22
2018-10-18T22:45:02.430Z,102707.69
2018-10-18T22:47:31.280Z,102711.77
2018-10-18T22:50:00.117Z,102713.59
2018-10-18T22:52:29.041Z,102718.25
2018-10-18T22:54:57.920Z,102715.94
2018-10-18T22:57:26.813Z,102717.52
2018-10-18T22:59:55.630Z,102711.70
2018-10-18T23:02:24.512Z,102715.91
2018-10-18T23:04:53.428Z,102715.13
2018-10-18T23:07:22.271Z,102711.81
2018-10-18T23:09:51.384Z,102704.69
2018-10-18T23:12:20.200Z,102703.95
2018-10-18T23:14:49.064Z,102702.41
2018-10-18T23:17:17.933Z,102709.26
2018-10-18T23:19:46.810Z,102704.42
2018-10-18T23:22:15.647Z,102706.41
2018-10-18T23:24:44.547Z,102702.09
2018-10-18T23:27:12.807Z,102701.39
2018-10-18T23:29:41.699Z,102695.55
2018-10-18T23:32:10.872Z,102699.27
2018-10-18T23:34:39.782Z,102700.98
2018-10-18T23:37:08.597Z,102704.34
2018-10-18T23:39:37.797Z,102698.22
2018-10-18T23:42:06.696Z,102689.26
2018-10-18T23:44:35.631Z,102692.02
2018-10-18T23:47:05.144Z,102694.72
2018-10-18T23:49:34.018Z,102700.63
2018-10-18T23:52:02.894Z,102689.78
2018-10-18T23:54:32.002Z,102694.44
2018-10-18T23:57:00.890Z,102690.91
2018-10-18T23:59:29.722Z,102697.09
